sensor_id;sensor_type;location;lat;lon;timestamp;P1;durP1;ratioP1;P2;durP2;ratioP2
15256;SDS011;7731;50.720;6.912;2022-09-28T00:02:07;1.43;;;0.90;;
15256;SDS011;7731;50.720;6.912;2022-09-28T00:04:44;1.03;;;0.80;;
15256;SDS011;7731;50.720;6.912;2022-09-28T00:07:15;0.90;;;0.80;;
15256;SDS011;7731;50.720;6.912;2022-09-28T00:09:45;0.70;;;0.70;;
15256;SDS011;7731;50.720;6.912;2022-09-28T00:12:19;2.03;;;0.80;;
15256;SDS011;7731;50.720;6.912;2022-09-28T00:14:52;1.47;;;0.80;;
15256;SDS011;7731;50.720;6.912;2022-09-28T00:17:22;2.43;;;1.00;;
15256;SDS011;7731;50.720;6.912;2022-09-28T00:19:52;1.33;;;0.90;;
15256;SDS011;7731;50.720;6.912;2022-09-28T00:22:24;0.73;;;0.67;;
15256;SDS011;7731;50.720;6.912;2022-09-28T00:24:59;1.57;;;0.70;;
15256;SDS011;7731;50.720;6.912;2022-09-28T00:27:31;1.57;;;0.70;;
15256;SDS011;7731;50.720;6.912;2022-09-28T00:30:02;1.60;;;0.67;;
15256;SDS011;7731;50.720;6.912;2022-09-28T00:32:33;0.93;;;0.77;;
15256;SDS011;7731;50.720;6.912;2022-09-28T00:35:04;0.90;;;0.60;;
15256;SDS011;7731;50.720;6.912;2022-09-28T00:37:35;0.83;;;0.57;;
15256;SDS011;7731;50.720;6.912;2022-09-28T00:40:06;1.10;;;0.60;;
15256;SDS011;7731;50.720;6.912;2022-09-28T00:42:48;1.47;;;0.77;;
15256;SDS011;7731;50.720;6.912;2022-09-28T00:45:18;0.77;;;0.57;;
15256;SDS011;7731;50.720;6.912;2022-09-28T00:47:50;1.63;;;0.80;;
15256;SDS011;7731;50.720;6.912;2022-09-28T00:50:27;1.10;;;0.80;;
15256;SDS011;7731;50.720;6.912;2022-09-28T00:53:03;3.30;;;0.73;;
15256;SDS011;7731;50.720;6.912;2022-09-28T00:55:41;0.80;;;0.57;;
15256;SDS011;7731;50.720;6.912;2022-09-28T00:58:23;1.03;;;0.70;;
15256;SDS011;7731;50.720;6.912;2022-09-28T01:00:59;1.00;;;0.60;;
15256;SDS011;7731;50.720;6.912;2022-09-28T01:03:33;0.73;;;0.50;;
15256;SDS011;7731;50.720;6.912;2022-09-28T01:06:06;2.87;;;0.93;;
15256;SDS011;7731;50.720;6.912;2022-09-28T01:08:41;1.80;;;0.70;;
15256;SDS011;7731;50.720;6.912;2022-09-28T01:11:15;1.03;;;0.50;;
15256;SDS011;7731;50.720;6.912;2022-09-28T01:13:50;0.53;;;0.53;;
15256;SDS011;7731;50.720;6.912;2022-09-28T01:16:30;0.90;;;0.63;;
15256;SDS011;7731;50.720;6.912;2022-09-28T01:19:13;1.40;;;0.70;;
15256;SDS011;7731;50.720;6.912;2022-09-28T01:22:09;1.53;;;0.73;;
15256;SDS011;7731;50.720;6.912;2022-09-28T01:25:00;1.90;;;0.80;;
15256;SDS011;7731;50.720;6.912;2022-09-28T01:27:43;1.73;;;0.80;;
15256;SDS011;7731;50.720;6.912;2022-09-28T01:30:22;2.03;;;0.83;;
15256;SDS011;7731;50.720;6.912;2022-09-28T01:33:00;2.03;;;0.80;;
15256;SDS011;7731;50.720;6.912;2022-09-28T01:35:40;0.77;;;0.67;;
15256;SDS011;7731;50.720;6.912;2022-09-28T01:38:23;1.20;;;0.97;;
15256;SDS011;7731;50.720;6.912;2022-09-28T01:40:59;1.40;;;0.80;;
15256;SDS011;7731;50.720;6.912;2022-09-28T01:43:34;1.77;;;0.80;;
15256;SDS011;7731;50.720;6.912;2022-09-28T01:46:10;1.20;;;0.80;;
15256;SDS011;7731;50.720;6.912;2022-09-28T01:48:45;3.00;;;0.93;;
15256;SDS011;7731;50.720;6.912;2022-09-28T01:51:24;3.30;;;0.70;;
15256;SDS011;7731;50.720;6.912;2022-09-28T01:54:16;1.57;;;0.80;;
15256;SDS011;7731;50.720;6.912;2022-09-28T01:57:01;1.00;;;0.87;;
15256;SDS011;7731;50.720;6.912;2022-09-28T01:59:43;1.40;;;1.00;;
15256;SDS011;7731;50.720;6.912;2022-09-28T02:02:27;1.57;;;1.00;;
15256;SDS011;7731;50.720;6.912;2022-09-28T02:05:05;1.67;;;0.80;;
15256;SDS011;7731;50.720;6.912;2022-09-28T02:07:45;1.03;;;0.80;;
15256;SDS011;7731;50.720;6.912;2022-09-28T02:10:26;3.67;;;1.03;;
15256;SDS011;7731;50.720;6.912;2022-09-28T02:13:04;1.40;;;1.00;;
15256;SDS011;7731;50.720;6.912;2022-09-28T02:15:48;1.57;;;1.20;;
15256;SDS011;7731;50.720;6.912;2022-09-28T02:18:22;1.80;;;1.00;;
15256;SDS011;7731;50.720;6.912;2022-09-28T02:20:58;2.13;;;1.00;;
15256;SDS011;7731;50.720;6.912;2022-09-28T02:23:35;2.90;;;0.90;;
15256;SDS011;7731;50.720;6.912;2022-09-28T02:26:10;2.63;;;1.10;;
15256;SDS011;7731;50.720;6.912;2022-09-28T02:28:51;1.83;;;0.87;;
15256;SDS011;7731;50.720;6.912;2022-09-28T02:31:24;4.17;;;1.10;;
15256;SDS011;7731;50.720;6.912;2022-09-28T02:33:55;1.37;;;0.97;;
15256;SDS011;7731;50.720;6.912;2022-09-28T02:36:26;2.33;;;1.00;;
15256;SDS011;7731;50.720;6.912;2022-09-28T02:38:57;4.57;;;1.00;;
15256;SDS011;7731;50.720;6.912;2022-09-28T02:41:31;1.50;;;0.90;;
15256;SDS011;7731;50.720;6.912;2022-09-28T02:44:26;0.93;;;0.80;;
15256;SDS011;7731;50.720;6.912;2022-09-28T02:47:18;2.57;;;1.40;;
15256;SDS011;7731;50.720;6.912;2022-09-28T02:50:06;3.80;;;1.20;;
15256;SDS011;7731;50.720;6.912;2022-09-28T02:53:00;1.70;;;1.40;;
15256;SDS011;7731;50.720;6.912;2022-09-28T02:55:57;1.77;;;1.00;;
15256;SDS011;7731;50.720;6.912;2022-09-28T02:59:01;1.37;;;1.00;;
15256;SDS011;7731;50.720;6.912;2022-09-28T03:01:48;4.40;;;1.13;;
15256;SDS011;7731;50.720;6.912;2022-09-28T03:04:41;2.13;;;1.20;;
15256;SDS011;7731;50.720;6.912;2022-09-28T03:07:24;4.10;;;1.30;;
15256;SDS011;7731;50.720;6.912;2022-09-28T03:10:00;2.47;;;1.20;;
15256;SDS011;7731;50.720;6.912;2022-09-28T03:12:41;2.90;;;1.43;;
15256;SDS011;7731;50.720;6.912;2022-09-28T03:15:18;1.37;;;1.03;;
15256;SDS011;7731;50.720;6.912;2022-09-28T03:17:52;1.53;;;1.30;;
15256;SDS011;7731;50.720;6.912;2022-09-28T03:20:26;3.53;;;1.10;;
15256;SDS011;7731;50.720;6.912;2022-09-28T03:23:01;1.97;;;1.30;;
15256;SDS011;7731;50.720;6.912;2022-09-28T03:25:50;2.37;;;1.43;;
15256;SDS011;7731;50.720;6.912;2022-09-28T03:28:24;1.87;;;1.57;;
15256;SDS011;7731;50.720;6.912;2022-09-28T03:30:55;1.60;;;1.20;;
15256;SDS011;7731;50.720;6.912;2022-09-28T03:33:25;3.27;;;1.60;;
15256;SDS011;7731;50.720;6.912;2022-09-28T03:36:01;6.20;;;1.57;;
15256;SDS011;7731;50.720;6.912;2022-09-28T03:38:31;2.03;;;1.70;;
15256;SDS011;7731;50.720;6.912;2022-09-28T03:41:01;2.03;;;1.63;;
15256;SDS011;7731;50.720;6.912;2022-09-28T03:43:33;1.50;;;1.40;;
15256;SDS011;7731;50.720;6.912;2022-09-28T03:46:04;3.47;;;1.60;;
15256;SDS011;7731;50.720;6.912;2022-09-28T03:48:34;5.13;;;1.70;;
15256;SDS011;7731;50.720;6.912;2022-09-28T03:51:10;4.30;;;1.50;;
15256;SDS011;7731;50.720;6.912;2022-09-28T03:53:41;2.50;;;1.80;;
15256;SDS011;7731;50.720;6.912;2022-09-28T03:56:20;5.20;;;1.43;;
15256;SDS011;7731;50.720;6.912;2022-09-28T03:58:50;2.27;;;1.30;;
15256;SDS011;7731;50.720;6.912;2022-09-28T04:01:20;2.90;;;1.63;;
15256;SDS011;7731;50.720;6.912;2022-09-28T04:03:54;2.50;;;1.73;;
15256;SDS011;7731;50.720;6.912;2022-09-28T04:06:27;2.67;;;1.33;;
15256;SDS011;7731;50.720;6.912;2022-09-28T04:08:57;3.37;;;1.60;;
15256;SDS011;7731;50.720;6.912;2022-09-28T04:11:33;4.07;;;1.60;;
15256;SDS011;7731;50.720;6.912;2022-09-28T04:14:26;2.67;;;1.37;;
15256;SDS011;7731;50.720;6.912;2022-09-28T04:16:56;2.33;;;1.40;;
15256;SDS011;7731;50.720;6.912;2022-09-28T04:19:27;9.87;;;1.87;;
15256;SDS011;7731;50.720;6.912;2022-09-28T04:21:59;3.93;;;1.57;;
15256;SDS011;7731;50.720;6.912;2022-09-28T04:24:30;3.70;;;1.80;;
15256;SDS011;7731;50.720;6.912;2022-09-28T04:27:00;3.43;;;1.40;;
15256;SDS011;7731;50.720;6.912;2022-09-28T04:29:42;3.37;;;1.60;;
15256;SDS011;7731;50.720;6.912;2022-09-28T04:32:15;2.03;;;1.60;;
15256;SDS011;7731;50.720;6.912;2022-09-28T04:34:45;3.33;;;1.60;;
15256;SDS011;7731;50.720;6.912;2022-09-28T04:37:21;2.73;;;1.67;;
15256;SDS011;7731;50.720;6.912;2022-09-28T04:39:51;2.37;;;1.50;;
15256;SDS011;7731;50.720;6.912;2022-09-28T04:42:21;3.60;;;1.70;;
15256;SDS011;7731;50.720;6.912;2022-09-28T04:44:51;2.90;;;1.70;;
15256;SDS011;7731;50.720;6.912;2022-09-28T04:47:23;2.33;;;1.70;;
15256;SDS011;7731;50.720;6.912;2022-09-28T04:49:53;4.13;;;2.20;;
15256;SDS011;7731;50.720;6.912;2022-09-28T04:52:28;3.10;;;1.80;;
15256;SDS011;7731;50.720;6.912;2022-09-28T04:54:59;2.60;;;1.90;;
15256;SDS011;7731;50.720;6.912;2022-09-28T04:57:29;3.00;;;2.23;;
15256;SDS011;7731;50.720;6.912;2022-09-28T04:59:59;3.93;;;2.67;;
15256;SDS011;7731;50.720;6.912;2022-09-28T05:02:29;3.37;;;2.70;;
15256;SDS011;7731;50.720;6.912;2022-09-28T05:05:00;3.43;;;2.47;;
15256;SDS011;7731;50.720;6.912;2022-09-28T05:07:32;7.17;;;2.93;;
15256;SDS011;7731;50.720;6.912;2022-09-28T05:10:03;3.40;;;2.73;;
15256;SDS011;7731;50.720;6.912;2022-09-28T05:12:34;4.40;;;3.07;;
15256;SDS011;7731;50.720;6.912;2022-09-28T05:15:04;4.17;;;3.07;;
15256;SDS011;7731;50.720;6.912;2022-09-28T05:17:35;3.93;;;3.20;;
15256;SDS011;7731;50.720;6.912;2022-09-28T05:20:08;3.50;;;2.87;;
15256;SDS011;7731;50.720;6.912;2022-09-28T05:22:41;2.93;;;2.60;;
15256;SDS011;7731;50.720;6.912;2022-09-28T05:25:11;3.60;;;2.70;;
15256;SDS011;7731;50.720;6.912;2022-09-28T05:27:41;3.30;;;3.00;;
15256;SDS011;7731;50.720;6.912;2022-09-28T05:30:11;4.30;;;3.10;;
15256;SDS011;7731;50.720;6.912;2022-09-28T05:32:42;3.27;;;2.70;;
15256;SDS011;7731;50.720;6.912;2022-09-28T05:35:16;3.30;;;3.00;;
15256;SDS011;7731;50.720;6.912;2022-09-28T05:37:56;4.07;;;3.13;;
15256;SDS011;7731;50.720;6.912;2022-09-28T05:40:34;7.03;;;2.87;;
15256;SDS011;7731;50.720;6.912;2022-09-28T05:43:04;3.20;;;2.90;;
15256;SDS011;7731;50.720;6.912;2022-09-28T05:45:37;3.40;;;3.10;;
15256;SDS011;7731;50.720;6.912;2022-09-28T05:48:07;4.00;;;3.40;;
15256;SDS011;7731;50.720;6.912;2022-09-28T05:50:40;4.00;;;3.07;;
15256;SDS011;7731;50.720;6.912;2022-09-28T05:53:15;3.40;;;3.10;;
15256;SDS011;7731;50.720;6.912;2022-09-28T05:55:48;6.20;;;3.50;;
15256;SDS011;7731;50.720;6.912;2022-09-28T05:58:18;2.90;;;2.60;;
15256;SDS011;7731;50.720;6.912;2022-09-28T06:00:52;3.43;;;3.00;;
15256;SDS011;7731;50.720;6.912;2022-09-28T06:03:23;4.93;;;3.17;;
15256;SDS011;7731;50.720;6.912;2022-09-28T06:05:54;3.57;;;3.20;;
15256;SDS011;7731;50.720;6.912;2022-09-28T06:08:29;3.90;;;3.20;;
15256;SDS011;7731;50.720;6.912;2022-09-28T06:11:00;3.60;;;2.97;;
15256;SDS011;7731;50.720;6.912;2022-09-28T06:13:31;5.77;;;3.30;;
15256;SDS011;7731;50.720;6.912;2022-09-28T06:16:04;3.93;;;2.90;;
15256;SDS011;7731;50.720;6.912;2022-09-28T06:18:36;6.33;;;5.83;;
15256;SDS011;7731;50.720;6.912;2022-09-28T06:21:11;3.20;;;2.90;;
15256;SDS011;7731;50.720;6.912;2022-09-28T06:23:49;5.43;;;2.93;;
15256;SDS011;7731;50.720;6.912;2022-09-28T06:26:19;2.80;;;2.60;;
15256;SDS011;7731;50.720;6.912;2022-09-28T06:28:51;4.67;;;2.43;;
15256;SDS011;7731;50.720;6.912;2022-09-28T06:31:24;4.80;;;2.70;;
15256;SDS011;7731;50.720;6.912;2022-09-28T06:33:55;4.13;;;2.30;;
15256;SDS011;7731;50.720;6.912;2022-09-28T06:36:30;3.80;;;2.73;;
15256;SDS011;7731;50.720;6.912;2022-09-28T06:39:06;3.30;;;2.50;;
15256;SDS011;7731;50.720;6.912;2022-09-28T06:41:39;5.03;;;2.50;;
15256;SDS011;7731;50.720;6.912;2022-09-28T06:44:09;2.63;;;2.20;;
15256;SDS011;7731;50.720;6.912;2022-09-28T06:46:39;4.03;;;2.40;;
15256;SDS011;7731;50.720;6.912;2022-09-28T06:49:09;3.17;;;2.63;;
15256;SDS011;7731;50.720;6.912;2022-09-28T06:51:44;3.10;;;2.40;;
15256;SDS011;7731;50.720;6.912;2022-09-28T06:54:19;3.90;;;2.30;;
15256;SDS011;7731;50.720;6.912;2022-09-28T06:56:56;2.90;;;2.20;;
15256;SDS011;7731;50.720;6.912;2022-09-28T06:59:26;2.30;;;1.80;;
15256;SDS011;7731;50.720;6.912;2022-09-28T07:01:59;2.97;;;2.10;;
15256;SDS011;7731;50.720;6.912;2022-09-28T07:04:29;5.83;;;2.30;;
15256;SDS011;7731;50.720;6.912;2022-09-28T07:07:03;5.32;;;2.38;;
15256;SDS011;7731;50.720;6.912;2022-09-28T07:09:40;2.17;;;1.93;;
15256;SDS011;7731;50.720;6.912;2022-09-28T07:12:17;2.20;;;2.00;;
15256;SDS011;7731;50.720;6.912;2022-09-28T07:14:48;4.20;;;2.25;;
15256;SDS011;7731;50.720;6.912;2022-09-28T07:17:21;2.55;;;1.95;;
15256;SDS011;7731;50.720;6.912;2022-09-28T07:19:56;3.42;;;2.00;;
15256;SDS011;7731;50.720;6.912;2022-09-28T07:22:41;3.25;;;2.17;;
15256;SDS011;7731;50.720;6.912;2022-09-28T07:25:16;2.33;;;2.05;;
15256;SDS011;7731;50.720;6.912;2022-09-28T07:27:49;2.75;;;1.67;;
15256;SDS011;7731;50.720;6.912;2022-09-28T07:30:22;4.53;;;2.15;;
15256;SDS011;7731;50.720;6.912;2022-09-28T07:32:53;4.43;;;2.00;;
15256;SDS011;7731;50.720;6.912;2022-09-28T07:35:23;4.88;;;1.90;;
15256;SDS011;7731;50.720;6.912;2022-09-28T07:37:57;4.03;;;2.05;;
15256;SDS011;7731;50.720;6.912;2022-09-28T07:40:34;3.97;;;2.00;;
15256;SDS011;7731;50.720;6.912;2022-09-28T07:43:17;2.15;;;1.85;;
15256;SDS011;7731;50.720;6.912;2022-09-28T07:45:49;4.93;;;2.00;;
15256;SDS011;7731;50.720;6.912;2022-09-28T07:48:22;3.55;;;1.80;;
15256;SDS011;7731;50.720;6.912;2022-09-28T07:50:53;4.32;;;1.80;;
15256;SDS011;7731;50.720;6.912;2022-09-28T07:53:25;2.55;;;1.67;;
15256;SDS011;7731;50.720;6.912;2022-09-28T07:56:02;2.55;;;1.80;;
15256;SDS011;7731;50.720;6.912;2022-09-28T07:58:42;2.20;;;1.50;;
15256;SDS011;7731;50.720;6.912;2022-09-28T08:01:14;4.88;;;1.80;;
15256;SDS011;7731;50.720;6.912;2022-09-28T08:03:45;1.40;;;1.30;;
15256;SDS011;7731;50.720;6.912;2022-09-28T08:06:24;1.40;;;1.30;;
15256;SDS011;7731;50.720;6.912;2022-09-28T08:08:54;2.22;;;1.30;;
15256;SDS011;7731;50.720;6.912;2022-09-28T08:11:29;2.70;;;1.33;;
15256;SDS011;7731;50.720;6.912;2022-09-28T08:13:59;1.60;;;1.30;;
15256;SDS011;7731;50.720;6.912;2022-09-28T08:16:29;1.50;;;1.20;;
15256;SDS011;7731;50.720;6.912;2022-09-28T08:19:00;1.35;;;1.20;;
15256;SDS011;7731;50.720;6.912;2022-09-28T08:21:33;2.88;;;1.52;;
15256;SDS011;7731;50.720;6.912;2022-09-28T08:24:13;3.17;;;1.50;;
15256;SDS011;7731;50.720;6.912;2022-09-28T08:26:50;3.00;;;1.20;;
15256;SDS011;7731;50.720;6.912;2022-09-28T08:29:20;1.20;;;1.00;;
15256;SDS011;7731;50.720;6.912;2022-09-28T08:31:53;1.80;;;1.02;;
15256;SDS011;7731;50.720;6.912;2022-09-28T08:34:27;1.23;;;1.08;;
15256;SDS011;7731;50.720;6.912;2022-09-28T08:36:59;2.42;;;1.08;;
15256;SDS011;7731;50.720;6.912;2022-09-28T08:39:29;3.47;;;1.10;;
15256;SDS011;7731;50.720;6.912;2022-09-28T08:42:05;2.95;;;0.90;;
15256;SDS011;7731;50.720;6.912;2022-09-28T08:44:55;2.42;;;1.00;;
15256;SDS011;7731;50.720;6.912;2022-09-28T08:47:38;2.53;;;0.90;;
15256;SDS011;7731;50.720;6.912;2022-09-28T08:50:35;9.40;;;1.45;;
15256;SDS011;7731;50.720;6.912;2022-09-28T08:53:33;1.90;;;0.90;;
15256;SDS011;7731;50.720;6.912;2022-09-28T08:56:11;4.40;;;1.30;;
15256;SDS011;7731;50.720;6.912;2022-09-28T08:59:08;1.80;;;0.90;;
15256;SDS011;7731;50.720;6.912;2022-09-28T09:01:48;1.38;;;1.00;;
15256;SDS011;7731;50.720;6.912;2022-09-28T09:04:25;1.02;;;0.80;;
15256;SDS011;7731;50.720;6.912;2022-09-28T09:07:02;2.05;;;0.82;;
15256;SDS011;7731;50.720;6.912;2022-09-28T09:09:58;1.25;;;0.75;;
15256;SDS011;7731;50.720;6.912;2022-09-28T09:12:48;1.67;;;0.70;;
15256;SDS011;7731;50.720;6.912;2022-09-28T09:15:38;2.50;;;0.82;;
15256;SDS011;7731;50.720;6.912;2022-09-28T09:18:27;1.88;;;0.80;;
15256;SDS011;7731;50.720;6.912;2022-09-28T09:21:09;1.45;;;0.60;;
15256;SDS011;7731;50.720;6.912;2022-09-28T09:23:53;1.13;;;0.60;;
15256;SDS011;7731;50.720;6.912;2022-09-28T09:26:30;3.78;;;0.80;;
15256;SDS011;7731;50.720;6.912;2022-09-28T09:29:17;1.20;;;0.63;;
15256;SDS011;7731;50.720;6.912;2022-09-28T09:32:08;3.60;;;0.85;;
15256;SDS011;7731;50.720;6.912;2022-09-28T09:34:59;1.02;;;0.73;;
15256;SDS011;7731;50.720;6.912;2022-09-28T09:38:04;1.50;;;0.70;;
15256;SDS011;7731;50.720;6.912;2022-09-28T09:40:59;1.75;;;0.70;;
15256;SDS011;7731;50.720;6.912;2022-09-28T09:43:55;1.15;;;0.75;;
15256;SDS011;7731;50.720;6.912;2022-09-28T09:46:43;1.33;;;0.70;;
15256;SDS011;7731;50.720;6.912;2022-09-28T09:49:25;0.98;;;0.65;;
15256;SDS011;7731;50.720;6.912;2022-09-28T09:52:09;2.13;;;0.73;;
15256;SDS011;7731;50.720;6.912;2022-09-28T09:54:47;0.75;;;0.50;;
15256;SDS011;7731;50.720;6.912;2022-09-28T09:57:24;1.30;;;0.70;;
15256;SDS011;7731;50.720;6.912;2022-09-28T10:00:03;1.05;;;0.60;;
15256;SDS011;7731;50.720;6.912;2022-09-28T10:02:47;2.45;;;0.65;;
15256;SDS011;7731;50.720;6.912;2022-09-28T10:05:23;1.40;;;0.70;;
15256;SDS011;7731;50.720;6.912;2022-09-28T10:07:59;1.63;;;0.70;;
15256;SDS011;7731;50.720;6.912;2022-09-28T10:10:45;1.27;;;0.70;;
15256;SDS011;7731;50.720;6.912;2022-09-28T10:13:21;0.80;;;0.70;;
15256;SDS011;7731;50.720;6.912;2022-09-28T10:15:59;1.95;;;0.80;;
15256;SDS011;7731;50.720;6.912;2022-09-28T10:18:30;3.00;;;0.85;;
15256;SDS011;7731;50.720;6.912;2022-09-28T10:21:03;0.80;;;0.50;;
15256;SDS011;7731;50.720;6.912;2022-09-28T10:23:35;3.10;;;0.70;;
15256;SDS011;7731;50.720;6.912;2022-09-28T10:26:11;2.95;;;1.00;;
15256;SDS011;7731;50.720;6.912;2022-09-28T10:28:51;2.42;;;0.60;;
15256;SDS011;7731;50.720;6.912;2022-09-28T10:31:34;2.60;;;0.90;;
15256;SDS011;7731;50.720;6.912;2022-09-28T10:34:07;4.07;;;0.70;;
15256;SDS011;7731;50.720;6.912;2022-09-28T10:36:48;2.25;;;0.65;;
15256;SDS011;7731;50.720;6.912;2022-09-28T10:39:31;1.38;;;0.77;;
15256;SDS011;7731;50.720;6.912;2022-09-28T10:42:05;1.27;;;0.73;;
15256;SDS011;7731;50.720;6.912;2022-09-28T10:44:47;1.30;;;0.90;;
15256;SDS011;7731;50.720;6.912;2022-09-28T10:47:24;2.75;;;0.93;;
15256;SDS011;7731;50.720;6.912;2022-09-28T10:49:58;1.70;;;1.02;;
15256;SDS011;7731;50.720;6.912;2022-09-28T10:52:36;2.28;;;0.90;;
15256;SDS011;7731;50.720;6.912;2022-09-28T10:55:21;4.32;;;0.90;;
15256;SDS011;7731;50.720;6.912;2022-09-28T10:57:57;1.05;;;0.80;;
15256;SDS011;7731;50.720;6.912;2022-09-28T11:00:30;1.17;;;0.65;;
15256;SDS011;7731;50.720;6.912;2022-09-28T11:03:15;2.42;;;0.80;;
15256;SDS011;7731;50.720;6.912;2022-09-28T11:05:53;1.83;;;0.80;;
15256;SDS011;7731;50.720;6.912;2022-09-28T11:08:32;2.17;;;0.95;;
15256;SDS011;7731;50.720;6.912;2022-09-28T11:11:07;1.35;;;0.70;;
15256;SDS011;7731;50.720;6.912;2022-09-28T11:13:43;1.73;;;0.77;;
15256;SDS011;7731;50.720;6.912;2022-09-28T11:19:05;2.92;;;0.90;;
15256;SDS011;7731;50.720;6.912;2022-09-28T11:21:56;2.70;;;0.60;;
15256;SDS011;7731;50.720;6.912;2022-09-28T11:24:32;2.05;;;0.80;;
15256;SDS011;7731;50.720;6.912;2022-09-28T11:27:11;0.80;;;0.70;;
15256;SDS011;7731;50.720;6.912;2022-09-28T11:29:59;2.55;;;1.00;;
15256;SDS011;7731;50.720;6.912;2022-09-28T11:32:30;2.47;;;1.00;;
15256;SDS011;7731;50.720;6.912;2022-09-28T11:35:21;2.75;;;1.00;;
15256;SDS011;7731;50.720;6.912;2022-09-28T11:38:13;1.80;;;1.00;;
15256;SDS011;7731;50.720;6.912;2022-09-28T11:41:14;4.00;;;1.00;;
15256;SDS011;7731;50.720;6.912;2022-09-28T11:44:35;2.58;;;1.10;;
15256;SDS011;7731;50.720;6.912;2022-09-28T11:50:17;4.82;;;1.35;;
15256;SDS011;7731;50.720;6.912;2022-09-28T11:53:03;1.70;;;1.25;;
15256;SDS011;7731;50.720;6.912;2022-09-28T11:55:46;2.20;;;1.20;;
15256;SDS011;7731;50.720;6.912;2022-09-28T11:58:38;2.47;;;1.40;;
15256;SDS011;7731;50.720;6.912;2022-09-28T12:01:18;1.42;;;1.00;;
15256;SDS011;7731;50.720;6.912;2022-09-28T12:03:57;3.03;;;1.20;;
15256;SDS011;7731;50.720;6.912;2022-09-28T12:06:38;2.20;;;1.23;;
15256;SDS011;7731;50.720;6.912;2022-09-28T12:09:17;3.10;;;1.40;;
15256;SDS011;7731;50.720;6.912;2022-09-28T12:11:55;2.42;;;1.02;;
15256;SDS011;7731;50.720;6.912;2022-09-28T12:14:38;1.65;;;1.05;;
15256;SDS011;7731;50.720;6.912;2022-09-28T12:17:13;2.17;;;1.30;;
15256;SDS011;7731;50.720;6.912;2022-09-28T12:19:55;2.30;;;1.27;;
15256;SDS011;7731;50.720;6.912;2022-09-28T12:22:38;2.95;;;1.48;;
15256;SDS011;7731;50.720;6.912;2022-09-28T12:25:15;1.45;;;1.10;;
15256;SDS011;7731;50.720;6.912;2022-09-28T12:27:52;2.15;;;1.10;;
15256;SDS011;7731;50.720;6.912;2022-09-28T12:30:33;2.28;;;1.20;;
15256;SDS011;7731;50.720;6.912;2022-09-28T12:33:10;2.00;;;1.10;;
15256;SDS011;7731;50.720;6.912;2022-09-28T12:35:46;2.05;;;1.10;;
15256;SDS011;7731;50.720;6.912;2022-09-28T12:38:37;3.70;;;1.02;;
15256;SDS011;7731;50.720;6.912;2022-09-28T12:41:48;1.77;;;1.00;;
15256;SDS011;7731;50.720;6.912;2022-09-28T12:44:46;2.95;;;1.35;;
15256;SDS011;7731;50.720;6.912;2022-09-28T12:48:00;3.58;;;1.38;;
15256;SDS011;7731;50.720;6.912;2022-09-28T12:51:00;4.00;;;1.30;;
15256;SDS011;7731;50.720;6.912;2022-09-28T12:53:50;2.90;;;1.13;;
15256;SDS011;7731;50.720;6.912;2022-09-28T12:56:45;2.40;;;1.40;;
15256;SDS011;7731;50.720;6.912;2022-09-28T12:59:29;2.10;;;1.25;;
15256;SDS011;7731;50.720;6.912;2022-09-28T13:02:24;2.55;;;1.20;;
15256;SDS011;7731;50.720;6.912;2022-09-28T13:08:56;3.60;;;2.10;;
15256;SDS011;7731;50.720;6.912;2022-09-28T13:12:00;2.33;;;1.85;;
15256;SDS011;7731;50.720;6.912;2022-09-28T13:14:50;4.38;;;1.88;;
15256;SDS011;7731;50.720;6.912;2022-09-28T13:17:51;5.10;;;2.00;;
15256;SDS011;7731;50.720;6.912;2022-09-28T13:20:44;7.65;;;1.83;;
15256;SDS011;7731;50.720;6.912;2022-09-28T13:23:33;4.82;;;1.90;;
15256;SDS011;7731;50.720;6.912;2022-09-28T13:26:23;3.72;;;1.90;;
15256;SDS011;7731;50.720;6.912;2022-09-28T13:29:15;5.13;;;1.95;;
15256;SDS011;7731;50.720;6.912;2022-09-28T13:31:55;7.95;;;1.88;;
15256;SDS011;7731;50.720;6.912;2022-09-28T13:34:32;3.38;;;1.45;;
15256;SDS011;7731;50.720;6.912;2022-09-28T13:37:07;5.25;;;1.65;;
15256;SDS011;7731;50.720;6.912;2022-09-28T13:39:50;4.03;;;1.92;;
15256;SDS011;7731;50.720;6.912;2022-09-28T13:42:31;4.43;;;1.92;;
15256;SDS011;7731;50.720;6.912;2022-09-28T13:45:49;4.03;;;1.95;;
15256;SDS011;7731;50.720;6.912;2022-09-28T13:48:26;4.15;;;2.13;;
15256;SDS011;7731;50.720;6.912;2022-09-28T13:51:25;3.00;;;1.30;;
15256;SDS011;7731;50.720;6.912;2022-09-28T13:54:26;9.02;;;1.90;;
15256;SDS011;7731;50.720;6.912;2022-09-28T13:57:18;3.47;;;1.70;;
15256;SDS011;7731;50.720;6.912;2022-09-28T14:00:00;4.03;;;1.73;;
15256;SDS011;7731;50.720;6.912;2022-09-28T14:02:44;4.78;;;2.33;;
15256;SDS011;7731;50.720;6.912;2022-09-28T14:08:36;3.88;;;1.77;;
15256;SDS011;7731;50.720;6.912;2022-09-28T14:14:26;4.75;;;1.80;;
15256;SDS011;7731;50.720;6.912;2022-09-28T14:20:33;2.95;;;1.80;;
15256;SDS011;7731;50.720;6.912;2022-09-28T14:29:36;3.03;;;1.73;;
15256;SDS011;7731;50.720;6.912;2022-09-28T14:35:03;2.83;;;1.70;;
15256;SDS011;7731;50.720;6.912;2022-09-28T14:37:45;5.55;;;1.70;;
15256;SDS011;7731;50.720;6.912;2022-09-28T14:40:35;5.55;;;2.08;;
15256;SDS011;7731;50.720;6.912;2022-09-28T14:46:35;2.03;;;1.70;;
15256;SDS011;7731;50.720;6.912;2022-09-28T14:52:16;8.52;;;2.45;;
15256;SDS011;7731;50.720;6.912;2022-09-28T14:55:12;3.33;;;1.65;;
15256;SDS011;7731;50.720;6.912;2022-09-28T15:00:29;4.53;;;1.90;;
15256;SDS011;7731;50.720;6.912;2022-09-28T15:03:10;4.63;;;1.90;;
15256;SDS011;7731;50.720;6.912;2022-09-28T15:05:43;2.83;;;1.60;;
15256;SDS011;7731;50.720;6.912;2022-09-28T15:08:18;2.90;;;1.33;;
15256;SDS011;7731;50.720;6.912;2022-09-28T15:10:49;4.55;;;1.80;;
15256;SDS011;7731;50.720;6.912;2022-09-28T15:13:23;6.40;;;1.83;;
15256;SDS011;7731;50.720;6.912;2022-09-28T15:15:59;11.98;;;3.13;;
15256;SDS011;7731;50.720;6.912;2022-09-28T15:21:55;7.07;;;1.67;;
15256;SDS011;7731;50.720;6.912;2022-09-28T15:24:26;4.38;;;2.10;;
15256;SDS011;7731;50.720;6.912;2022-09-28T15:27:00;2.92;;;1.77;;
15256;SDS011;7731;50.720;6.912;2022-09-28T15:29:54;2.53;;;1.48;;
15256;SDS011;7731;50.720;6.912;2022-09-28T15:32:32;3.25;;;1.90;;
15256;SDS011;7731;50.720;6.912;2022-09-28T15:35:11;3.22;;;1.52;;
15256;SDS011;7731;50.720;6.912;2022-09-28T15:37:46;2.33;;;1.65;;
15256;SDS011;7731;50.720;6.912;2022-09-28T15:40:21;3.10;;;1.70;;
15256;SDS011;7731;50.720;6.912;2022-09-28T15:43:15;2.95;;;1.70;;
15256;SDS011;7731;50.720;6.912;2022-09-28T15:45:55;4.38;;;1.73;;
15256;SDS011;7731;50.720;6.912;2022-09-28T15:48:31;4.22;;;1.77;;
15256;SDS011;7731;50.720;6.912;2022-09-28T15:51:27;4.57;;;1.70;;
15256;SDS011;7731;50.720;6.912;2022-09-28T15:54:15;4.68;;;1.90;;
15256;SDS011;7731;50.720;6.912;2022-09-28T15:56:52;2.72;;;1.60;;
15256;SDS011;7731;50.720;6.912;2022-09-28T15:59:26;2.65;;;1.45;;
15256;SDS011;7731;50.720;6.912;2022-09-28T16:02:00;2.45;;;1.50;;
15256;SDS011;7731;50.720;6.912;2022-09-28T16:04:51;7.50;;;1.88;;
15256;SDS011;7731;50.720;6.912;2022-09-28T16:07:25;4.93;;;1.75;;
15256;SDS011;7731;50.720;6.912;2022-09-28T16:10:06;2.55;;;1.38;;
15256;SDS011;7731;50.720;6.912;2022-09-28T16:13:10;3.75;;;1.33;;
15256;SDS011;7731;50.720;6.912;2022-09-28T16:15:45;2.13;;;1.20;;
15256;SDS011;7731;50.720;6.912;2022-09-28T16:18:25;2.50;;;1.17;;
15256;SDS011;7731;50.720;6.912;2022-09-28T16:23:59;2.15;;;1.17;;
15256;SDS011;7731;50.720;6.912;2022-09-28T16:26:33;2.75;;;1.73;;
15256;SDS011;7731;50.720;6.912;2022-09-28T16:29:06;4.50;;;1.92;;
15256;SDS011;7731;50.720;6.912;2022-09-28T16:31:53;5.70;;;3.05;;
15256;SDS011;7731;50.720;6.912;2022-09-28T16:34:27;7.78;;;4.57;;
15256;SDS011;7731;50.720;6.912;2022-09-28T16:36:58;3.15;;;2.00;;
15256;SDS011;7731;50.720;6.912;2022-09-28T16:39:30;4.55;;;1.80;;
15256;SDS011;7731;50.720;6.912;2022-09-28T16:42:04;5.35;;;1.73;;
15256;SDS011;7731;50.720;6.912;2022-09-28T16:44:36;2.35;;;1.30;;
15256;SDS011;7731;50.720;6.912;2022-09-28T16:47:13;3.88;;;1.60;;
15256;SDS011;7731;50.720;6.912;2022-09-28T16:49:43;1.88;;;1.40;;
15256;SDS011;7731;50.720;6.912;2022-09-28T16:52:13;5.00;;;1.60;;
15256;SDS011;7731;50.720;6.912;2022-09-28T16:55:09;1.75;;;1.33;;